Time,TemperatureF,DewpointF,PressureIn,WindDirection,WindDirectionDegrees,WindSpeedMPH,WindSpeedGustMPH,Humidity,HourlyPrecipIn,Conditions,Clouds,dailyrainin,SolarRadiationWatts/m^2,SoftwareType,DateUTC
2013-03-17 00:04:00,40.2,34.5,29.50,SE,142,9.6,13.8,80,0.00,-RA,,0.00,0.0,WeatherDisplay:10.37,2013-03-16 23:04:00,
2013-03-17 00:09:00,40.2,34.5,29.50,SSE,154,7.0,18.4,80,0.00,-RA,,0.00,0.0,WeatherDisplay:10.37,2013-03-16 23:09:00,
2013-03-17 00:14:00,40.2,34.5,29.50,South,171,13.6,16.1,80,0.00,-RA,,0.00,0.0,WeatherDisplay:10.37,2013-03-16 23:14:00,
2013-03-17 00:19:00,40.4,34.7,29.50,SSW,206,13.6,23.0,80,0.00,-RA,,0.00,0.0,WeatherDisplay:10.37,2013-03-16 23:19:00,
2013-03-17 00:24:00,40.2,34.8,29.50,SSW,194,12.1,16.1,81,0.00,-RA,,0.00,0.0,WeatherDisplay:10.37,2013-03-16 23:24:00,
2013-03-17 00:29:00,39.8,35.0,29.49,South,176,7.1,16.1,83,0.01,-RA,,0.01,0.0,WeatherDisplay:10.37,2013-03-16 23:29:00,
2013-03-17 00:34:00,39.5,35.0,29.49,SE,144,7.8,11.5,84,0.01,-RA,,0.01,0.0,WeatherDisplay:10.37,2013-03-16 23:34:00,
2013-03-17 00:39:00,39.3,35.1,29.49,SSE,154,5.1,10.4,85,0.02,-RA,,0.02,0.0,WeatherDisplay:10.37,2013-03-16 23:39:00,
2013-03-17 00:44:00,39.0,34.9,29.49,South,175,9.1,13.8,85,0.02,-RA,,0.02,0.0,WeatherDisplay:10.37,2013-03-16 23:44:00,
2013-03-17 00:49:00,38.8,35.0,29.49,SSE,155,9.8,13.8,86,0.02,-RA,,0.02,0.0,WeatherDisplay:10.37,2013-03-16 23:49:00,
2013-03-17 00:54:00,38.7,35.1,29.49,SSE,155,11.8,13.8,87,0.02,-RA,,0.02,0.0,WeatherDisplay:10.37,2013-03-16 23:54:00,
2013-03-17 00:59:00,38.6,35.0,29.49,SSE,165,10.4,13.8,87,0.02,-RA,,0.02,0.0,WeatherDisplay:10.37,2013-03-16 23:59:00,
2013-03-17 01:04:00,38.6,35.3,29.49,SSE,151,11.2,18.4,88,0.02,-RA,,0.02,0.0,WeatherDisplay:10.37,2013-03-17 00:04:00,
2013-03-17 01:09:00,38.6,35.3,29.49,SSE,158,10.3,17.3,88,0.02,-RA,,0.02,0.0,WeatherDisplay:10.37,2013-03-17 00:09:00,
2013-03-17 01:14:00,38.6,35.3,29.49,SSE,158,10.1,12.0,88,0.02,-RA,,0.02,0.0,WeatherDisplay:10.37,2013-03-17 00:14:00,
2013-03-17 01:19:00,38.6,35.3,29.49,SSE,150,9.0,11.5,88,0.02,-RA,,0.02,0.0,WeatherDisplay:10.37,2013-03-17 00:19:00,
2013-03-17 01:24:00,38.7,35.4,29.48,SE,136,6.6,9.2,88,0.02,-RA,,0.02,0.0,WeatherDisplay:10.37,2013-03-17 00:24:00,
2013-03-17 01:29:00,38.7,35.4,29.48,South,186,3.9,10.4,88,0.02,-RA,,0.02,0.0,WeatherDisplay:10.37,2013-03-17 00:29:00,
2013-03-17 01:34:00,38.8,35.5,29.48,SSE,157,2.6,8.0,88,0.02,-RA,,0.02,0.0,WeatherDisplay:10.37,2013-03-17 00:34:00,
2013-03-17 01:39:00,38.9,35.6,29.48,South,180,6.6,9.2,88,0.01,-RA,,0.02,0.0,WeatherDisplay:10.37,2013-03-17 00:39:00,
2013-03-17 01:44:00,39.1,35.8,29.48,SSE,166,3.1,11.5,88,0.01,-RA,,0.02,0.0,WeatherDisplay:10.37,2013-03-17 00:44:00,
2013-03-17 01:49:00,39.2,35.9,29.48,SSE,151,6.5,11.5,88,0.01,-RA,,0.02,0.0,WeatherDisplay:10.37,2013-03-17 00:49:00,
2013-03-17 01:54:00,39.3,36.0,29.48,SSW,195,5.2,12.0,88,0.01,-RA,,0.02,0.0,WeatherDisplay:10.37,2013-03-17 00:54:00,
2013-03-17 01:59:00,39.5,35.9,29.48,SSW,198,8.2,13.0,87,0.01,-RA,,0.02,0.0,WeatherDisplay:10.37,2013-03-17 00:59:00,
2013-03-17 02:04:00,39.6,36.0,29.48,SSE,160,8.4,11.5,87,0.00,-RA,,0.02,0.0,WeatherDisplay:10.37,2013-03-17 01:04:00,
2013-03-17 02:09:00,39.8,36.2,29.48,SSE,160,7.4,7.4,87,0.00,-RA,,0.02,0.0,WeatherDisplay:10.37,2013-03-17 01:09:00,
2013-03-17 02:14:00,39.9,36.3,29.47,South,183,8.5,12.7,87,0.00,-RA,,0.02,0.0,WeatherDisplay:10.37,2013-03-17 01:14:00,
2013-03-17 02:19:00,40.0,36.4,29.47,South,178,5.8,10.4,87,0.00,-RA,,0.02,0.0,WeatherDisplay:10.37,2013-03-17 01:19:00,
2013-03-17 02:24:00,40.0,36.4,29.47,SSE,161,5.9,5.9,87,0.00,OVC,,0.02,0.0,WeatherDisplay:10.37,2013-03-17 01:24:00,
2013-03-17 02:29:00,40.1,36.2,29.47,SSW,194,8.1,11.5,86,0.00,OVC,,0.02,0.0,WeatherDisplay:10.37,2013-03-17 01:29:00,
2013-03-17 02:34:00,40.1,36.2,29.47,South,180,4.6,9.2,86,0.00,OVC,,0.02,0.0,WeatherDisplay:10.37,2013-03-17 01:34:00,
2013-03-17 02:39:00,40.2,36.3,29.47,SSE,166,5.3,9.2,86,0.00,OVC,,0.02,0.0,WeatherDisplay:10.37,2013-03-17 01:39:00,
2013-03-17 02:44:00,40.3,37.9,29.47,SE,144,4.1,9.2,91,0.00,OVC,,0.02,0.0,WeatherDisplay:10.37,2013-03-17 01:44:00,
2013-03-17 02:49:00,40.4,36.5,29.47,SSE,166,2.4,5.8,86,0.00,OVC,,0.02,0.0,WeatherDisplay:10.37,2013-03-17 01:49:00,
2013-03-17 02:54:00,40.4,36.5,29.46,SSE,159,9.8,12.7,86,0.00,OVC,,0.02,0.0,WeatherDisplay:10.37,2013-03-17 01:54:00,
2013-03-17 02:59:00,40.5,36.6,29.46,SSE,147,6.8,11.5,86,0.00,OVC,,0.02,0.0,WeatherDisplay:10.37,2013-03-17 01:59:00,
2013-03-17 03:04:00,40.5,36.3,29.46,SSE,151,5.9,10.4,85,0.00,OVC,,0.02,0.0,WeatherDisplay:10.37,2013-03-17 02:04:00,
2013-03-17 03:09:00,40.6,36.4,29.46,SSE,149,6.2,8.1,85,0.00,OVC,,0.02,0.0,WeatherDisplay:10.37,2013-03-17 02:09:00,
2013-03-17 03:14:00,40.6,36.7,29.46,SSE,150,2.1,10.4,86,0.00,OVC,,0.02,0.0,WeatherDisplay:10.37,2013-03-17 02:14:00,
2013-03-17 03:19:00,40.6,36.7,29.46,South,169,3.6,10.4,86,0.00,OVC,,0.02,0.0,WeatherDisplay:10.37,2013-03-17 02:19:00,
2013-03-17 03:24:00,40.6,36.7,29.45,SSE,153,6.0,11.0,86,0.00,OVC,,0.02,0.0,WeatherDisplay:10.37,2013-03-17 02:24:00,
2013-03-17 03:29:00,40.7,36.5,29.45,SSE,151,4.8,7.0,85,0.00,OVC,,0.02,0.0,WeatherDisplay:10.37,2013-03-17 02:29:00,
2013-03-17 03:34:00,40.7,36.5,29.45,SSE,161,6.8,8.1,85,0.00,OVC,,0.02,0.0,WeatherDisplay:10.37,2013-03-17 02:34:00,
2013-03-17 03:39:00,40.7,36.5,29.45,SSE,159,5.6,10.4,85,0.00,OVC,,0.02,0.0,WeatherDisplay:10.37,2013-03-17 02:39:00,
2013-03-17 03:44:00,40.7,36.8,29.45,SSE,150,7.0,11.5,86,0.00,OVC,,0.02,0.0,WeatherDisplay:10.37,2013-03-17 02:44:00,
2013-03-17 03:49:00,40.7,36.5,29.45,SSE,152,9.0,11.5,85,0.00,OVC,,0.02,0.0,WeatherDisplay:10.37,2013-03-17 02:49:00,
2013-03-17 03:54:00,40.7,36.5,29.45,SSE,151,9.3,13.8,85,0.00,OVC,,0.02,0.0,WeatherDisplay:10.37,2013-03-17 02:54:00,
2013-03-17 03:59:00,40.7,36.8,29.44,SE,144,11.1,12.0,86,0.00,OVC,,0.02,0.0,WeatherDisplay:10.37,2013-03-17 02:59:00,
2013-03-17 04:04:00,40.7,36.5,29.44,SSE,148,10.4,15.0,85,0.00,OVC,,0.02,0.0,WeatherDisplay:10.37,2013-03-17 03:04:00,
2013-03-17 04:09:00,40.6,36.4,29.44,SSE,151,8.7,17.3,85,0.00,OVC,,0.02,0.0,WeatherDisplay:10.37,2013-03-17 03:09:00,
2013-03-17 04:14:00,40.5,36.3,29.44,SSE,149,8.8,11.5,85,0.00,OVC,,0.02,0.0,WeatherDisplay:10.37,2013-03-17 03:14:00,
2013-03-17 04:19:00,40.4,36.2,29.44,SSE,153,8.0,11.5,85,0.00,OVC,,0.02,0.0,WeatherDisplay:10.37,2013-03-17 03:19:00,
2013-03-17 04:24:00,40.2,36.0,29.44,SE,143,5.4,8.1,85,0.00,OVC,,0.02,0.0,WeatherDisplay:10.37,2013-03-17 03:24:00,
2013-03-17 04:29:00,40.1,35.9,29.44,SSE,163,2.8,5.0,85,0.00,OVC,,0.02,0.0,WeatherDisplay:10.37,2013-03-17 03:29:00,
2013-03-17 04:34:00,40.1,36.2,29.44,SSE,151,4.7,7.0,86,0.00,OVC,,0.02,0.0,WeatherDisplay:10.37,2013-03-17 03:34:00,
2013-03-17 04:39:00,40.2,36.3,29.44,SSE,148,6.0,9.2,86,0.00,OVC,,0.02,0.0,WeatherDisplay:10.37,2013-03-17 03:39:00,
2013-03-17 04:44:00,40.2,36.3,29.44,SE,143,5.2,12.0,86,0.00,BKN,,0.02,0.0,WeatherDisplay:10.37,2013-03-17 03:44:00,
2013-03-17 04:49:00,40.3,36.4,29.44,South,180,3.5,8.1,86,0.00,BKN,,0.02,0.0,WeatherDisplay:10.37,2013-03-17 03:49:00,
2013-03-17 04:54:00,40.3,36.1,29.44,South,172,4.3,5.8,85,0.00,BKN,,0.02,0.0,WeatherDisplay:10.37,2013-03-17 03:54:00,
2013-03-17 04:59:00,40.4,36.2,29.44,South,169,5.6,11.5,85,0.00,BKN,,0.02,0.0,WeatherDisplay:10.37,2013-03-17 03:59:00,
2013-03-17 05:00:00,40.4,36.2,29.44,South,172,6.0,12.0,85,0.00,BKN,,0.02,0.0,WeatherDisplay:10.37,2013-03-17 04:00:00,
2013-03-17 05:05:00,40.5,36.3,29.44,South,174,3.8,7.0,85,0.00,BKN,,0.02,0.0,WeatherDisplay:10.37,2013-03-17 04:05:00,
2013-03-17 05:10:00,40.5,36.3,29.44,SSE,151,7.6,19.6,85,0.00,BKN,,0.02,0.0,WeatherDisplay:10.37,2013-03-17 04:10:00,
2013-03-17 05:15:00,40.5,36.3,29.43,South,188,8.5,11.5,85,0.00,FEW,,0.02,0.0,WeatherDisplay:10.37,2013-03-17 04:15:00,
2013-03-17 05:20:00,40.5,36.3,29.43,SSE,159,4.7,9.0,85,0.00,FEW,,0.02,0.0,WeatherDisplay:10.37,2013-03-17 04:20:00,
2013-03-17 05:25:00,40.4,36.2,29.43,SE,142,4.4,9.2,85,0.00,FEW,,0.02,0.0,WeatherDisplay:10.37,2013-03-17 04:25:00,
2013-03-17 05:30:00,40.2,36.3,29.43,SSE,163,6.0,7.0,86,0.00,FEW,,0.02,0.0,WeatherDisplay:10.37,2013-03-17 04:30:00,
2013-03-17 05:35:00,40.2,36.3,29.43,South,186,7.4,11.5,86,0.00,FEW,,0.02,0.0,WeatherDisplay:10.37,2013-03-17 04:35:00,
2013-03-17 05:40:00,40.3,36.4,29.43,SE,142,5.6,10.4,86,0.00,FEW,,0.02,0.0,WeatherDisplay:10.37,2013-03-17 04:40:00,
2013-03-17 05:45:00,40.4,36.5,29.43,SSE,153,8.0,12.7,86,0.00,OVC,,0.02,0.0,WeatherDisplay:10.37,2013-03-17 04:45:00,
2013-03-17 05:50:00,40.4,36.5,29.43,SE,132,3.9,11.5,86,0.00,OVC,,0.02,0.0,WeatherDisplay:10.37,2013-03-17 04:50:00,
2013-03-17 05:55:00,40.4,36.5,29.43,SE,142,7.0,12.7,86,0.00,OVC,,0.02,0.0,WeatherDisplay:10.37,2013-03-17 04:55:00,
2013-03-17 06:00:00,40.4,36.5,29.43,SE,143,4.8,10.4,86,0.00,OVC,,0.02,0.0,WeatherDisplay:10.37,2013-03-17 05:00:00,
2013-03-17 06:05:00,40.4,36.8,29.43,SE,142,5.0,11.5,87,0.00,OVC,,0.02,0.0,WeatherDisplay:10.37,2013-03-17 05:05:00,
2013-03-17 06:10:00,40.4,36.8,29.43,SE,146,3.8,7.0,87,0.00,OVC,,0.02,0.0,WeatherDisplay:10.37,2013-03-17 05:10:00,
2013-03-17 06:15:00,40.3,36.7,29.43,South,171,4.7,10.4,87,0.00,OVC,,0.02,0.0,WeatherDisplay:10.37,2013-03-17 05:15:00,
2013-03-17 06:20:00,40.3,36.7,29.43,South,180,7.0,13.8,87,0.00,OVC,,0.02,0.0,WeatherDisplay:10.37,2013-03-17 05:20:00,
2013-03-17 06:25:00,40.2,36.6,29.44,South,183,4.8,9.2,87,0.00,OVC,,0.02,0.0,WeatherDisplay:10.37,2013-03-17 05:25:00,
2013-03-17 06:30:00,40.2,36.6,29.44,South,188,8.3,11.5,87,0.00,OVC,,0.02,0.0,WeatherDisplay:10.37,2013-03-17 05:30:00,
2013-03-17 06:35:00,40.3,36.7,29.43,South,179,6.0,9.2,87,0.00,OVC,,0.02,0.0,WeatherDisplay:10.37,2013-03-17 05:35:00,
2013-03-17 06:40:00,40.3,36.7,29.43,SE,140,8.9,11.5,87,0.00,OVC,,0.02,0.0,WeatherDisplay:10.37,2013-03-17 05:40:00,
2013-03-17 06:45:00,40.2,36.6,29.43,SSE,155,8.3,13.0,87,0.00,OVC,,0.02,0.0,WeatherDisplay:10.37,2013-03-17 05:45:00,
2013-03-17 06:50:00,40.2,36.6,29.43,SSE,148,5.1,10.0,87,0.00,OVC,,0.02,0.0,WeatherDisplay:10.37,2013-03-17 05:50:00,
2013-03-17 06:55:00,40.2,36.9,29.43,SSE,156,3.8,8.1,88,0.00,OVC,,0.02,0.0,WeatherDisplay:10.37,2013-03-17 05:55:00,
2013-03-17 07:00:00,40.2,36.9,29.43,SE,138,7.0,12.7,88,0.00,OVC,,0.02,0.0,WeatherDisplay:10.37,2013-03-17 06:00:00,
2013-03-17 07:05:00,40.1,36.8,29.43,South,184,2.3,9.0,88,0.00,OVC,,0.02,5.0,WeatherDisplay:10.37,2013-03-17 06:05:00,
2013-03-17 07:10:00,40.1,36.8,29.43,SSE,161,7.0,10.4,88,0.00,OVC,,0.02,7.0,WeatherDisplay:10.37,2013-03-17 06:10:00,
2013-03-17 07:15:00,40.0,36.7,29.44,SSE,167,6.2,11.5,88,0.00,OVC,,0.02,9.0,WeatherDisplay:10.37,2013-03-17 06:15:00,
2013-03-17 07:20:00,40.0,36.7,29.44,South,171,2.9,8.1,88,0.00,OVC,,0.02,5.0,WeatherDisplay:10.37,2013-03-17 06:20:00,
2013-03-17 07:25:00,40.0,36.7,29.44,SE,146,6.9,11.5,88,0.00,OVC,,0.02,5.0,WeatherDisplay:10.37,2013-03-17 06:25:00,
2013-03-17 07:30:00,40.0,36.7,29.44,SSE,154,4.8,6.9,88,0.00,OVC,,0.02,9.0,WeatherDisplay:10.37,2013-03-17 06:30:00,
2013-03-17 07:35:00,40.0,36.7,29.43,South,171,2.4,6.0,88,0.00,OVC,,0.02,14.0,WeatherDisplay:10.37,2013-03-17 06:35:00,
2013-03-17 07:40:00,40.0,37.0,29.43,South,171,3.8,6.9,89,0.00,OVC,,0.02,26.0,WeatherDisplay:10.37,2013-03-17 06:40:00,
2013-03-17 07:45:00,40.1,37.1,29.43,SSE,152,5.4,10.4,89,0.00,OVC,,0.02,47.0,WeatherDisplay:10.37,2013-03-17 06:45:00,
2013-03-17 07:50:00,40.2,37.2,29.44,South,187,3.9,8.1,89,0.00,OVC,,0.02,56.0,WeatherDisplay:10.37,2013-03-17 06:50:00,
2013-03-17 07:55:00,40.2,37.2,29.43,SSE,152,5.3,11.5,89,0.00,OVC,,0.02,72.0,WeatherDisplay:10.37,2013-03-17 06:55:00,
2013-03-17 08:00:00,40.4,37.4,29.43,SE,145,6.2,11.5,89,0.00,OVC,,0.02,74.0,WeatherDisplay:10.37,2013-03-17 07:00:00,
2013-03-17 08:05:00,40.4,37.4,29.43,SSE,163,6.9,10.4,89,0.00,OVC,,0.02,60.0,WeatherDisplay:10.37,2013-03-17 07:05:00,
2013-03-17 08:10:00,40.5,37.5,29.43,SE,146,8.4,10.4,89,0.00,OVC,,0.02,46.0,WeatherDisplay:10.37,2013-03-17 07:10:00,
2013-03-17 08:15:00,40.5,37.5,29.43,South,169,4.4,8.1,89,0.00,OVC,,0.02,88.0,WeatherDisplay:10.37,2013-03-17 07:15:00,
2013-03-17 08:20:00,40.6,37.6,29.43,SSE,167,3.5,4.6,89,0.00,OVC,,0.02,91.0,WeatherDisplay:10.37,2013-03-17 07:20:00,
2013-03-17 08:25:00,40.7,37.7,29.43,SSE,150,4.8,6.9,89,0.00,OVC,,0.02,185.0,WeatherDisplay:10.37,2013-03-17 07:25:00,
2013-03-17 08:30:00,40.8,37.8,29.43,SSE,158,4.4,6.9,89,0.00,OVC,,0.02,221.0,WeatherDisplay:10.37,2013-03-17 07:30:00,
2013-03-17 08:35:00,40.9,37.9,29.43,SSE,166,4.4,8.0,89,0.00,OVC,,0.02,125.0,WeatherDisplay:10.37,2013-03-17 07:35:00,
2013-03-17 08:40:00,41.1,38.1,29.43,SSE,156,3.4,6.0,89,0.00,OVC,,0.02,88.0,WeatherDisplay:10.37,2013-03-17 07:40:00,
2013-03-17 08:45:00,41.0,38.0,29.43,SSE,165,5.7,12.7,89,0.00,OVC,,0.02,62.0,WeatherDisplay:10.37,2013-03-17 07:45:00,
2013-03-17 08:50:00,41.0,38.0,29.43,SSE,155,6.1,9.0,89,0.00,OVC,,0.02,62.0,WeatherDisplay:10.37,2013-03-17 07:50:00,
2013-03-17 08:55:00,41.0,38.0,29.43,SSE,149,6.6,9.2,89,0.00,OVC,,0.02,123.0,WeatherDisplay:10.37,2013-03-17 07:55:00,
2013-03-17 09:00:00,41.0,38.0,29.43,SSE,155,4.8,8.1,89,0.00,OVC,,0.02,155.0,WeatherDisplay:10.37,2013-03-17 08:00:00,
2013-03-17 09:05:00,41.2,38.2,29.43,SSE,151,6.5,8.1,89,0.00,RA,,0.02,144.0,WeatherDisplay:10.37,2013-03-17 08:05:00,
2013-03-17 09:10:00,41.4,38.4,29.43,SSE,153,5.2,11.5,89,0.00,RA,,0.02,148.0,WeatherDisplay:10.37,2013-03-17 08:10:00,
2013-03-17 09:15:00,41.5,38.5,29.43,SSE,158,5.8,9.2,89,0.00,RA,,0.02,125.0,WeatherDisplay:10.37,2013-03-17 08:15:00,
2013-03-17 09:20:00,41.6,38.3,29.43,South,188,6.5,11.5,88,0.00,RA,,0.02,114.0,WeatherDisplay:10.37,2013-03-17 08:20:00,
2013-03-17 09:25:00,41.5,38.2,29.43,SSE,157,5.6,10.4,88,0.00,RA,,0.02,86.0,WeatherDisplay:10.37,2013-03-17 08:25:00,
2013-03-17 09:30:00,41.5,38.2,29.42,SSE,155,4.4,10.4,88,0.00,BKN,,0.02,79.0,WeatherDisplay:10.37,2013-03-17 08:30:00,
2013-03-17 09:35:00,41.5,38.2,29.42,SSE,164,5.1,5.8,88,0.00,BKN,,0.02,49.0,WeatherDisplay:10.37,2013-03-17 08:35:00,
2013-03-17 09:40:00,41.4,38.1,29.42,SSE,153,4.2,6.9,88,0.00,BKN,,0.02,67.0,WeatherDisplay:10.37,2013-03-17 08:40:00,
2013-03-17 09:45:00,41.4,38.1,29.42,South,186,3.4,8.1,88,0.00,OVC,,0.02,56.0,WeatherDisplay:10.37,2013-03-17 08:45:00,
2013-03-17 09:50:00,41.4,38.1,29.42,South,179,5.3,6.9,88,0.00,OVC,,0.02,53.0,WeatherDisplay:10.37,2013-03-17 08:50:00,
2013-03-17 09:55:00,41.4,38.1,29.42,South,171,3.5,3.5,88,0.00,OVC,,0.02,62.0,WeatherDisplay:10.37,2013-03-17 08:55:00,
2013-03-17 10:00:00,41.4,38.1,29.42,South,173,4.4,11.5,88,0.00,OVC,,0.02,69.0,WeatherDisplay:10.37,2013-03-17 09:00:00,
2013-03-17 10:05:00,41.4,38.1,29.42,SSE,148,5.3,13.0,88,0.00,OVC,,0.02,58.0,WeatherDisplay:10.37,2013-03-17 09:05:00,
2013-03-17 10:10:00,41.4,38.1,29.42,SE,142,8.1,12.7,88,0.00,OVC,,0.02,54.0,WeatherDisplay:10.37,2013-03-17 09:10:00,
2013-03-17 10:15:00,41.4,38.1,29.42,SE,143,6.9,11.5,88,0.00,OVC,,0.02,51.0,WeatherDisplay:10.37,2013-03-17 09:15:00,
2013-03-17 10:20:00,41.3,38.0,29.42,SSE,152,11.6,14.0,88,0.00,OVC,,0.02,63.0,WeatherDisplay:10.37,2013-03-17 09:20:00,
2013-03-17 10:25:00,41.4,38.1,29.42,SSE,150,5.9,9.2,88,0.00,OVC,,0.02,83.0,WeatherDisplay:10.37,2013-03-17 09:25:00,
2013-03-17 10:30:00,41.4,38.1,29.42,SSE,162,7.1,9.2,88,0.00,OVC,,0.02,104.0,WeatherDisplay:10.37,2013-03-17 09:30:00,
2013-03-17 10:35:00,41.5,38.2,29.42,SSE,154,2.8,4.6,88,0.00,OVC,,0.02,98.0,WeatherDisplay:10.37,2013-03-17 09:35:00,
2013-03-17 10:40:00,41.6,38.3,29.42,SSE,167,2.6,8.1,88,0.00,OVC,,0.02,91.0,WeatherDisplay:10.37,2013-03-17 09:40:00,
2013-03-17 10:45:00,41.7,38.4,29.41,SSE,152,5.0,10.0,88,0.00,OVC,,0.02,121.0,WeatherDisplay:10.37,2013-03-17 09:45:00,
2013-03-17 10:50:00,41.9,38.6,29.41,SSE,153,4.0,5.0,88,0.00,OVC,,0.02,128.0,WeatherDisplay:10.37,2013-03-17 09:50:00,
2013-03-17 10:55:00,42.0,38.7,29.41,SE,139,7.4,10.4,88,0.00,OVC,,0.02,142.0,WeatherDisplay:10.37,2013-03-17 09:55:00,
2013-03-17 11:00:00,42.2,38.9,29.41,SSE,151,6.0,8.1,88,0.00,OVC,,0.02,192.0,WeatherDisplay:10.37,2013-03-17 10:00:00,
2013-03-17 11:05:00,42.4,38.8,29.41,South,176,7.9,12.7,87,0.00,OVC,,0.02,186.0,WeatherDisplay:10.37,2013-03-17 10:05:00,
2013-03-17 11:10:00,42.6,39.0,29.41,SE,144,6.3,11.5,87,0.00,OVC,,0.02,278.0,WeatherDisplay:10.37,2013-03-17 10:10:00,
2013-03-17 11:15:00,43.0,39.4,29.41,SSE,153,8.7,11.5,87,0.00,OVC,,0.02,318.0,WeatherDisplay:10.37,2013-03-17 10:15:00,
2013-03-17 11:20:00,43.5,39.9,29.41,SE,136,3.7,7.0,87,0.00,OVC,,0.02,411.0,WeatherDisplay:10.37,2013-03-17 10:20:00,
2013-03-17 11:25:00,44.0,40.1,29.40,SE,134,10.6,13.8,86,0.00,OVC,,0.02,533.0,WeatherDisplay:10.37,2013-03-17 10:25:00,
2013-03-17 11:30:00,44.4,40.2,29.40,SSE,156,9.0,10.4,85,0.00,OVC,,0.02,410.0,WeatherDisplay:10.37,2013-03-17 10:30:00,
2013-03-17 11:35:00,44.6,40.0,29.40,SSE,155,6.5,11.5,84,0.00,OVC,,0.02,353.0,WeatherDisplay:10.37,2013-03-17 10:35:00,
2013-03-17 11:40:00,44.9,40.0,29.40,SE,146,7.0,13.8,83,0.00,OVC,,0.02,294.0,WeatherDisplay:10.37,2013-03-17 10:40:00,
2013-03-17 11:45:00,45.0,39.8,29.40,SSE,168,9.4,15.0,82,0.00,OVC,,0.02,171.0,WeatherDisplay:10.37,2013-03-17 10:45:00,
2013-03-17 11:50:00,45.0,39.8,29.40,SSE,163,6.7,7.0,82,0.00,OVC,,0.02,211.0,WeatherDisplay:10.37,2013-03-17 10:50:00,
2013-03-17 11:55:00,45.0,39.5,29.40,SSE,151,7.4,11.5,81,0.00,OVC,,0.02,155.0,WeatherDisplay:10.37,2013-03-17 10:55:00,
2013-03-17 12:00:00,45.1,39.6,29.39,South,173,6.1,11.0,81,0.00,OVC,,0.02,188.0,WeatherDisplay:10.37,2013-03-17 11:00:00,
2013-03-17 12:05:00,45.2,39.7,29.39,South,188,9.6,17.3,81,0.00,OVC,,0.02,264.0,WeatherDisplay:10.37,2013-03-17 11:05:00,
2013-03-17 12:10:00,45.2,39.4,29.39,South,169,12.0,18.4,80,0.00,OVC,,0.02,244.0,WeatherDisplay:10.37,2013-03-17 11:10:00,
2013-03-17 12:15:00,45.4,39.6,29.39,SSW,194,7.3,12.7,80,0.00,OVC,,0.02,239.0,WeatherDisplay:10.37,2013-03-17 11:15:00,
2013-03-17 12:20:00,45.7,39.9,29.39,South,186,9.3,13.0,80,0.00,OVC,,0.02,236.0,WeatherDisplay:10.37,2013-03-17 11:20:00,
2013-03-17 12:25:00,45.8,39.6,29.39,South,174,9.6,12.7,79,0.00,OVC,,0.02,248.0,WeatherDisplay:10.37,2013-03-17 11:25:00,
2013-03-17 12:30:00,45.8,39.6,29.39,South,190,9.0,12.0,79,0.00,OVC,,0.02,260.0,WeatherDisplay:10.37,2013-03-17 11:30:00,
2013-03-17 12:35:00,46.0,39.8,29.39,South,174,7.8,12.7,79,0.00,OVC,,0.02,297.0,WeatherDisplay:10.37,2013-03-17 11:35:00,
2013-03-17 12:40:00,46.2,39.7,29.38,South,182,8.1,11.5,78,0.00,OVC,,0.02,244.0,WeatherDisplay:10.37,2013-03-17 11:40:00,
2013-03-17 12:45:00,46.4,39.6,29.38,SSE,149,6.1,15.0,77,0.00,OVC,,0.02,255.0,WeatherDisplay:10.37,2013-03-17 11:45:00,
2013-03-17 12:50:00,46.6,39.8,29.38,SE,138,7.3,11.5,77,0.00,OVC,,0.02,272.0,WeatherDisplay:10.37,2013-03-17 11:50:00,
2013-03-17 12:55:00,46.7,39.5,29.38,SSE,151,10.0,15.0,76,0.00,OVC,,0.02,278.0,WeatherDisplay:10.37,2013-03-17 11:55:00,
2013-03-17 13:00:00,46.8,39.9,29.38,South,184,7.2,11.5,77,0.00,OVC,,0.02,332.0,WeatherDisplay:10.37,2013-03-17 12:00:00,
2013-03-17 13:05:00,47.3,40.4,29.37,South,186,9.0,11.5,77,0.00,OVC,,0.02,756.0,WeatherDisplay:10.37,2013-03-17 12:05:00,
2013-03-17 13:10:00,47.6,40.4,29.37,SE,143,6.2,10.4,76,0.00,OVC,,0.02,722.0,WeatherDisplay:10.37,2013-03-17 12:10:00,
2013-03-17 13:15:00,47.9,40.7,29.37,SSE,152,7.2,9.2,76,0.00,OVC,,0.02,647.0,WeatherDisplay:10.37,2013-03-17 12:15:00,
2013-03-17 13:20:00,48.2,40.6,29.37,SSE,150,9.0,13.8,75,0.00,OVC,,0.02,323.0,WeatherDisplay:10.37,2013-03-17 12:20:00,
2013-03-17 13:25:00,47.9,40.3,29.36,SSE,161,5.4,11.5,75,0.00,OVC,,0.02,334.0,WeatherDisplay:10.37,2013-03-17 12:25:00,
2013-03-17 13:30:00,48.0,40.4,29.36,SSE,156,9.0,13.8,75,0.00,OVC,,0.02,262.0,WeatherDisplay:10.37,2013-03-17 12:30:00,
2013-03-17 13:35:00,48.0,40.4,29.36,SSE,147,6.2,10.4,75,0.00,OVC,,0.02,218.0,WeatherDisplay:10.37,2013-03-17 12:35:00,
2013-03-17 13:40:00,47.8,39.9,29.36,SE,138,6.8,6.8,74,0.00,OVC,,0.02,236.0,WeatherDisplay:10.37,2013-03-17 12:40:00,
2013-03-17 13:45:00,47.7,39.8,29.35,SSE,168,5.3,8.1,74,0.00,BKN,,0.02,171.0,WeatherDisplay:10.37,2013-03-17 12:45:00,
2013-03-17 13:50:00,47.6,39.4,29.35,SSE,168,5.4,12.7,73,0.00,BKN,,0.02,158.0,WeatherDisplay:10.37,2013-03-17 12:50:00,
2013-03-17 13:55:00,47.6,39.7,29.35,SSE,147,6.5,11.5,74,0.00,BKN,,0.02,104.0,WeatherDisplay:10.37,2013-03-17 12:55:00,
2013-03-17 14:00:00,47.5,40.3,29.35,South,176,6.7,12.7,76,0.00,BKN,,0.02,135.0,WeatherDisplay:10.37,2013-03-17 13:00:00,
2013-03-17 14:05:00,47.4,39.2,29.35,South,171,6.5,11.5,73,0.00,BKN,,0.02,81.0,WeatherDisplay:10.37,2013-03-17 13:05:00,
2013-03-17 14:10:00,47.2,39.0,29.35,South,180,10.8,15.0,73,0.00,BKN,,0.02,120.0,WeatherDisplay:10.37,2013-03-17 13:10:00,
2013-03-17 14:15:00,47.0,39.1,29.35,South,179,9.9,13.8,74,0.00,OVC,,0.02,81.0,WeatherDisplay:10.37,2013-03-17 13:15:00,
2013-03-17 14:20:00,46.9,39.0,29.35,SSW,196,7.8,11.5,74,0.00,OVC,,0.02,109.0,WeatherDisplay:10.37,2013-03-17 13:20:00,
2013-03-17 14:25:00,46.8,38.9,29.35,SSE,161,10.1,12.7,74,0.00,OVC,,0.02,135.0,WeatherDisplay:10.37,2013-03-17 13:25:00,
2013-03-17 14:30:00,46.8,38.9,29.34,SSE,167,5.9,9.2,74,0.00,OVC,,0.02,165.0,WeatherDisplay:10.37,2013-03-17 13:30:00,
2013-03-17 14:35:00,47.0,39.1,29.34,SE,137,7.1,17.3,74,0.00,OVC,,0.02,190.0,WeatherDisplay:10.37,2013-03-17 13:35:00,
2013-03-17 14:40:00,47.1,38.9,29.34,South,169,5.3,8.1,73,0.00,OVC,,0.02,283.0,WeatherDisplay:10.37,2013-03-17 13:40:00,
2013-03-17 14:45:00,47.5,39.3,29.34,South,188,9.7,9.7,73,0.00,BKN,,0.02,223.0,WeatherDisplay:10.37,2013-03-17 13:45:00,
2013-03-17 14:50:00,47.8,39.5,29.34,South,185,8.9,11.5,73,0.00,BKN,,0.02,183.0,WeatherDisplay:10.37,2013-03-17 13:50:00,
2013-03-17 14:55:00,47.8,39.2,29.33,SSE,163,4.1,15.0,72,0.00,BKN,,0.02,197.0,WeatherDisplay:10.37,2013-03-17 13:55:00,
2013-03-17 15:00:00,47.8,39.2,29.33,SSE,155,11.2,15.0,72,0.00,BKN,,0.02,206.0,WeatherDisplay:10.37,2013-03-17 14:00:00,
2013-03-17 15:05:00,47.8,39.2,29.33,SSE,160,8.5,11.5,72,0.00,BKN,,0.02,155.0,WeatherDisplay:10.37,2013-03-17 14:05:00,
2013-03-17 15:10:00,47.8,39.2,29.33,SE,143,7.7,11.5,72,0.00,BKN,,0.02,134.0,WeatherDisplay:10.37,2013-03-17 14:10:00,
2013-03-17 15:15:00,47.7,39.1,29.33,South,169,13.4,17.3,72,0.00,SCT,,0.02,130.0,WeatherDisplay:10.37,2013-03-17 14:15:00,
2013-03-17 15:20:00,47.5,38.9,29.33,SSE,161,9.0,15.0,72,0.00,SCT,,0.02,93.0,WeatherDisplay:10.37,2013-03-17 14:20:00,
2013-03-17 15:25:00,47.3,39.1,29.33,SE,126,10.8,15.0,73,0.00,SCT,,0.02,113.0,WeatherDisplay:10.37,2013-03-17 14:25:00,
2013-03-17 15:30:00,47.2,39.0,29.33,SE,146,10.1,18.4,73,0.00,SCT,,0.02,123.0,WeatherDisplay:10.37,2013-03-17 14:30:00,
2013-03-17 15:35:00,47.1,39.2,29.32,SSE,151,12.8,19.6,74,0.00,SCT,,0.02,120.0,WeatherDisplay:10.37,2013-03-17 14:35:00,
2013-03-17 15:40:00,47.1,39.2,29.32,ESE,119,6.3,9.2,74,0.00,SCT,,0.02,141.0,WeatherDisplay:10.37,2013-03-17 14:40:00,
2013-03-17 15:45:00,47.2,39.3,29.32,SSE,160,7.7,15.0,74,0.00,SCT,,0.02,134.0,WeatherDisplay:10.37,2013-03-17 14:45:00,
2013-03-17 15:50:00,47.2,39.3,29.31,SE,140,7.7,13.0,74,0.00,SCT,,0.02,149.0,WeatherDisplay:10.37,2013-03-17 14:50:00,
2013-03-17 15:55:00,47.3,39.1,29.31,SE,140,7.7,11.5,73,0.00,BKN,,0.02,146.0,WeatherDisplay:10.37,2013-03-17 14:55:00,
2013-03-17 16:00:00,47.3,38.7,29.31,SE,134,11.4,13.8,72,0.00,BKN,,0.02,155.0,WeatherDisplay:10.37,2013-03-17 15:00:00,
2013-03-17 16:05:00,47.3,38.4,29.31,SSE,152,7.4,11.5,71,0.00,BKN,,0.02,163.0,WeatherDisplay:10.37,2013-03-17 15:05:00,
2013-03-17 16:10:00,47.5,38.5,29.30,SE,142,8.1,10.4,71,0.00,BKN,,0.02,151.0,WeatherDisplay:10.37,2013-03-17 15:10:00,
2013-03-17 16:15:00,47.6,38.6,29.30,SSE,147,11.1,12.7,71,0.00,BKN,,0.02,165.0,WeatherDisplay:10.37,2013-03-17 15:15:00,
2013-03-17 16:20:00,47.7,38.7,29.30,SE,143,7.8,11.5,71,0.00,BKN,,0.02,239.0,WeatherDisplay:10.37,2013-03-17 15:20:00,
2013-03-17 16:25:00,48.1,39.1,29.30,SE,128,8.7,13.8,71,0.00,FEW,,0.02,504.0,WeatherDisplay:10.37,2013-03-17 15:25:00,
2013-03-17 16:30:00,48.6,39.2,29.30,SE,139,9.4,11.5,70,0.00,FEW,,0.02,376.0,WeatherDisplay:10.37,2013-03-17 15:30:00,
2013-03-17 16:35:00,49.0,39.2,29.29,SE,136,7.5,9.2,69,0.00,FEW,,0.02,359.0,WeatherDisplay:10.37,2013-03-17 15:35:00,
2013-03-17 16:40:00,49.0,38.9,29.29,SE,142,10.4,11.5,68,0.00,BKN,,0.02,218.0,WeatherDisplay:10.37,2013-03-17 15:40:00,
2013-03-17 16:45:00,48.9,38.4,29.29,SSE,161,9.3,15.0,67,0.00,OVC,,0.02,100.0,WeatherDisplay:10.37,2013-03-17 15:45:00,
2013-03-17 16:50:00,48.5,38.4,29.29,SE,138,8.2,11.5,68,0.00,BKN,,0.02,127.0,WeatherDisplay:10.37,2013-03-17 15:50:00,
2013-03-17 16:55:00,48.2,38.1,29.29,SSE,153,9.2,11.5,68,0.00,BKN,,0.02,118.0,WeatherDisplay:10.37,2013-03-17 15:55:00,
2013-03-17 17:00:00,48.0,38.3,29.29,SE,142,8.3,11.5,69,0.00,CLR,,0.02,81.0,WeatherDisplay:10.37,2013-03-17 16:00:00,
2013-03-17 17:05:00,48.0,38.3,29.30,SSE,151,10.3,11.5,69,0.00,CLR,,0.02,42.0,WeatherDisplay:10.37,2013-03-17 16:05:00,
2013-03-17 17:10:00,47.9,38.6,29.30,SE,145,9.3,13.8,70,0.00,CLR,,0.02,35.0,WeatherDisplay:10.37,2013-03-17 16:10:00,
2013-03-17 17:15:00,47.8,38.5,29.30,SE,146,9.3,11.5,70,0.00,CLR,,0.02,44.0,WeatherDisplay:10.37,2013-03-17 16:15:00,
2013-03-17 17:20:00,47.7,38.7,29.29,SSE,149,8.9,12.7,71,0.00,CLR,,0.02,33.0,WeatherDisplay:10.37,2013-03-17 16:20:00,
2013-03-17 17:25:00,47.6,38.6,29.29,SSE,149,8.4,10.4,71,0.00,FEW,,0.02,19.0,WeatherDisplay:10.37,2013-03-17 16:25:00,
2013-03-17 17:30:00,47.5,38.5,29.29,SE,142,8.6,10.4,71,0.00,FEW,,0.02,16.0,WeatherDisplay:10.37,2013-03-17 16:30:00,
2013-03-17 17:35:00,47.3,38.4,29.29,SE,136,7.7,11.5,71,0.00,FEW,,0.02,19.0,WeatherDisplay:10.37,2013-03-17 16:35:00,
2013-03-17 17:40:00,47.2,37.9,29.29,SSE,158,8.9,11.5,70,0.00,FEW,,0.02,21.0,WeatherDisplay:10.37,2013-03-17 16:40:00,
2013-03-17 17:45:00,47.2,38.3,29.29,SSE,152,8.5,11.5,71,0.00,FEW,,0.02,14.0,WeatherDisplay:10.37,2013-03-17 16:45:00,
2013-03-17 17:50:00,47.1,38.2,29.29,ESE,119,8.0,12.7,71,0.00,FEW,,0.02,9.0,WeatherDisplay:10.37,2013-03-17 16:50:00,
2013-03-17 17:55:00,47.1,37.8,29.29,SSE,160,8.7,15.0,70,0.00,CLR,,0.02,5.0,WeatherDisplay:10.37,2013-03-17 16:55:00,
2013-03-17 18:00:00,47.1,38.2,29.29,SE,142,8.5,11.5,71,0.00,CLR,,0.02,0.0,WeatherDisplay:10.37,2013-03-17 17:00:00,
2013-03-17 18:05:00,47.1,37.8,29.29,SE,138,7.7,12.7,70,0.00,CLR,,0.02,0.0,WeatherDisplay:10.37,2013-03-17 17:05:00,
2013-03-17 18:10:00,47.1,37.8,29.28,SE,132,9.2,12.7,70,0.00,CLR,,0.02,0.0,WeatherDisplay:10.37,2013-03-17 17:10:00,
2013-03-17 18:15:00,47.1,37.8,29.28,SSE,157,7.8,12.7,70,0.00,CLR,,0.02,0.0,WeatherDisplay:10.37,2013-03-17 17:15:00,
2013-03-17 18:20:00,47.0,37.7,29.28,SE,143,7.8,9.2,70,0.00,CLR,,0.02,0.0,WeatherDisplay:10.37,2013-03-17 17:20:00,
2013-03-17 18:25:00,47.0,37.7,29.28,SE,142,6.8,9.2,70,0.00,CLR,,0.02,0.0,WeatherDisplay:10.37,2013-03-17 17:25:00,
2013-03-17 18:30:00,46.9,38.3,29.28,SE,137,9.6,11.5,72,0.00,CLR,,0.02,0.0,WeatherDisplay:10.37,2013-03-17 17:30:00,
2013-03-17 18:35:00,46.8,38.6,29.28,SSE,151,7.2,9.2,73,0.00,CLR,,0.02,0.0,WeatherDisplay:10.37,2013-03-17 17:35:00,
2013-03-17 18:40:00,46.6,38.7,29.28,SE,136,5.0,10.0,74,0.00,CLR,,0.02,0.0,WeatherDisplay:10.37,2013-03-17 17:40:00,
2013-03-17 18:45:00,46.4,38.5,29.28,SE,142,4.6,10.4,74,0.00,FEW,,0.02,0.0,WeatherDisplay:10.37,2013-03-17 17:45:00,
2013-03-17 18:50:00,46.3,38.4,29.27,SE,130,4.5,11.5,74,0.00,FEW,,0.02,0.0,WeatherDisplay:10.37,2013-03-17 17:50:00,
2013-03-17 18:55:00,46.3,38.4,29.27,ESE,105,5.7,6.9,74,0.00,FEW,,0.02,0.0,WeatherDisplay:10.37,2013-03-17 17:55:00,
2013-03-17 19:00:00,46.2,38.3,29.27,ESE,105,6.2,7.0,74,0.00,FEW,,0.02,0.0,WeatherDisplay:10.37,2013-03-17 18:00:00,
2013-03-17 19:05:00,46.1,38.3,29.27,ESE,109,6.8,11.5,74,0.00,FEW,,0.02,0.0,WeatherDisplay:10.37,2013-03-17 18:05:00,
2013-03-17 19:10:00,46.0,38.5,29.27,ESE,110,7.0,11.5,75,0.00,FEW,,0.02,0.0,WeatherDisplay:10.37,2013-03-17 18:10:00,
2013-03-17 19:15:00,45.8,38.3,29.27,East,98,7.5,12.7,75,0.00,FEW,,0.02,0.0,WeatherDisplay:10.37,2013-03-17 18:15:00,
2013-03-17 19:20:00,45.7,38.5,29.27,ESE,104,10.1,13.8,76,0.00,FEW,,0.02,0.0,WeatherDisplay:10.37,2013-03-17 18:20:00,
2013-03-17 19:25:00,45.6,38.4,29.27,ESE,117,7.8,11.5,76,0.00,FEW,,0.02,0.0,WeatherDisplay:10.37,2013-03-17 18:25:00,
2013-03-17 19:30:00,45.5,38.7,29.27,ESE,115,6.5,9.2,77,0.00,FEW,,0.02,0.0,WeatherDisplay:10.37,2013-03-17 18:30:00,
2013-03-17 19:35:00,45.5,38.7,29.27,SE,126,5.8,9.2,77,0.00,FEW,,0.02,0.0,WeatherDisplay:10.37,2013-03-17 18:35:00,
2013-03-17 19:40:00,45.4,38.6,29.27,ESE,120,3.9,11.5,77,0.00,FEW,,0.02,0.0,WeatherDisplay:10.37,2013-03-17 18:40:00,
2013-03-17 19:45:00,45.3,38.5,29.26,SE,128,6.2,9.2,77,0.00,CLR,,0.02,0.0,WeatherDisplay:10.37,2013-03-17 18:45:00,
2013-03-17 19:50:00,45.3,38.2,29.26,SE,139,6.6,9.2,76,0.00,CLR,,0.02,0.0,WeatherDisplay:10.37,2013-03-17 18:50:00,
2013-03-17 19:55:00,45.3,38.2,29.26,SE,131,7.9,12.7,76,0.00,CLR,,0.02,0.0,WeatherDisplay:10.37,2013-03-17 18:55:00,
2013-03-17 20:00:00,45.5,38.0,29.26,ESE,112,8.1,11.0,75,0.00,CLR,,0.02,0.0,WeatherDisplay:10.37,2013-03-17 19:00:00,
2013-03-17 20:05:00,45.5,37.7,29.26,ESE,116,8.2,11.5,74,0.00,CLR,,0.02,0.0,WeatherDisplay:10.37,2013-03-17 19:05:00,
2013-03-17 20:10:00,45.5,37.7,29.26,SE,126,6.8,9.2,74,0.00,CLR,,0.02,0.0,WeatherDisplay:10.37,2013-03-17 19:10:00,
2013-03-17 20:15:00,45.5,38.0,29.26,ESE,116,7.5,11.5,75,0.00,BKN,,0.02,0.0,WeatherDisplay:10.37,2013-03-17 19:15:00,
2013-03-17 20:20:00,45.4,38.3,29.26,SE,131,8.1,11.5,76,0.00,BKN,,0.02,0.0,WeatherDisplay:10.37,2013-03-17 19:20:00,
2013-03-17 20:26:00,45.3,38.5,29.26,SE,141,3.6,5.8,77,0.01,RA,,0.03,0.0,WeatherDisplay:10.37,2013-03-17 19:26:00,
2013-03-17 20:31:00,44.9,38.8,29.26,SSE,149,7.3,8.1,79,0.01,RA,,0.03,0.0,WeatherDisplay:10.37,2013-03-17 19:31:00,
2013-03-17 20:36:00,44.5,39.0,29.26,SE,142,6.8,11.5,81,0.02,RA,,0.04,0.0,WeatherDisplay:10.37,2013-03-17 19:36:00,
2013-03-17 20:41:00,44.3,39.1,29.26,SSE,153,6.2,9.2,82,0.02,RA,,0.05,0.0,WeatherDisplay:10.37,2013-03-17 19:41:00,
2013-03-17 20:46:00,44.0,39.1,29.26,SE,146,8.7,15.0,83,0.03,RA,,0.06,0.0,WeatherDisplay:10.37,2013-03-17 19:46:00,
2013-03-17 20:51:00,43.7,39.2,29.26,SSE,155,19.4,26.5,84,0.04,RA,,0.06,0.0,WeatherDisplay:10.37,2013-03-17 19:51:00,
2013-03-17 20:56:00,43.1,38.9,29.26,SE,136,12.7,21.9,85,0.04,RA,,0.07,0.0,WeatherDisplay:10.37,2013-03-17 19:56:00,
2013-03-17 21:01:00,42.6,38.7,29.26,South,173,11.2,13.8,86,0.06,RA,,0.08,0.0,WeatherDisplay:10.37,2013-03-17 20:01:00,
2013-03-17 21:06:00,42.2,38.6,29.26,SSE,161,13.2,19.6,87,0.06,RA,,0.08,0.0,WeatherDisplay:10.37,2013-03-17 20:06:00,
2013-03-17 21:11:00,42.0,38.4,29.26,SSE,157,5.9,8.1,87,0.06,RA,,0.09,0.0,WeatherDisplay:10.37,2013-03-17 20:11:00,
2013-03-17 21:16:00,41.9,38.6,29.25,SSE,157,3.5,6.9,88,0.07,-RA,,0.09,0.0,WeatherDisplay:10.37,2013-03-17 20:16:00,
2013-03-17 21:21:00,41.8,38.8,29.25,SSE,158,3.9,6.9,89,0.08,-RA,,0.10,0.0,WeatherDisplay:10.37,2013-03-17 20:21:00,
2013-03-17 21:26:00,41.8,38.8,29.25,SSE,157,1.5,4.6,89,0.07,-RA,,0.10,0.0,WeatherDisplay:10.37,2013-03-17 20:26:00,
2013-03-17 21:31:00,41.8,39.1,29.25,SSE,157,3.2,5.8,90,0.07,-RA,,0.10,0.0,WeatherDisplay:10.37,2013-03-17 20:31:00,
2013-03-17 21:36:00,41.8,39.1,29.25,SSE,149,4.1,6.9,90,0.06,-RA,,0.10,0.0,WeatherDisplay:10.37,2013-03-17 20:36:00,
2013-03-17 21:41:00,41.9,39.4,29.25,SE,130,1.1,3.5,91,0.06,-RA,,0.10,0.0,WeatherDisplay:10.37,2013-03-17 20:41:00,
2013-03-17 21:46:00,42.0,39.5,29.25,ESE,118,5.2,5.8,91,0.05,BKN,,0.10,0.0,WeatherDisplay:10.37,2013-03-17 20:46:00,
2013-03-17 21:51:00,42.0,39.8,29.24,ESE,116,4.5,4.6,92,0.04,BKN,,0.10,0.0,WeatherDisplay:10.37,2013-03-17 20:51:00,
2013-03-17 21:56:00,42.0,39.8,29.24,ESE,113,3.6,9.2,92,0.04,BKN,,0.10,0.0,WeatherDisplay:10.37,2013-03-17 20:56:00,
2013-03-17 22:01:00,42.0,39.8,29.24,SE,136,5.4,8.1,92,0.02,BKN,,0.10,0.0,WeatherDisplay:10.37,2013-03-17 21:01:00,
2013-03-17 22:06:00,42.0,39.8,29.24,SE,145,4.2,8.1,92,0.02,BKN,,0.10,0.0,WeatherDisplay:10.37,2013-03-17 21:06:00,
2013-03-17 22:11:00,42.0,39.8,29.24,SE,142,9.6,11.5,92,0.02,BKN,,0.10,0.0,WeatherDisplay:10.37,2013-03-17 21:11:00,
2013-03-17 22:16:00,42.0,39.8,29.24,SE,141,9.7,19.6,92,0.01,FEW,,0.10,0.0,WeatherDisplay:10.37,2013-03-17 21:16:00,
2013-03-17 22:21:00,42.0,39.8,29.24,SSE,151,8.1,11.5,92,0.00,FEW,,0.10,0.0,WeatherDisplay:10.37,2013-03-17 21:21:00,
2013-03-17 22:26:00,42.0,39.8,29.24,SE,134,9.3,13.8,92,0.01,RA,,0.11,0.0,WeatherDisplay:10.37,2013-03-17 21:26:00,
2013-03-17 22:31:00,42.0,39.8,29.24,SE,137,7.3,11.5,92,0.01,RA,,0.11,0.0,WeatherDisplay:10.37,2013-03-17 21:31:00,
2013-03-17 22:36:00,42.0,39.8,29.23,SE,145,7.0,10.4,92,0.01,RA,,0.11,0.0,WeatherDisplay:10.37,2013-03-17 21:36:00,
2013-03-17 22:41:00,42.0,39.8,29.23,SE,127,6.5,13.0,92,0.01,RA,,0.11,0.0,WeatherDisplay:10.37,2013-03-17 21:41:00,
2013-03-17 22:46:00,42.0,39.8,29.23,SE,127,8.9,12.0,92,0.01,RA,,0.11,0.0,WeatherDisplay:10.37,2013-03-17 21:46:00,
2013-03-17 22:51:00,41.9,39.7,29.23,SE,125,5.9,17.3,92,0.01,BKN,,0.11,0.0,WeatherDisplay:10.37,2013-03-17 21:51:00,
2013-03-17 22:56:00,41.9,39.7,29.23,SE,141,7.6,8.1,92,0.01,BKN,,0.11,0.0,WeatherDisplay:10.37,2013-03-17 21:56:00,
2013-03-17 23:01:00,41.8,39.6,29.23,SE,134,7.6,12.7,92,0.01,BKN,,0.11,0.0,WeatherDisplay:10.37,2013-03-17 22:01:00,
2013-03-17 23:06:00,41.8,39.6,29.23,SE,136,8.3,15.0,92,0.01,BKN,,0.11,0.0,WeatherDisplay:10.37,2013-03-17 22:06:00,
2013-03-17 23:11:00,41.8,39.6,29.23,SE,134,7.9,15.0,92,0.01,BKN,,0.11,0.0,WeatherDisplay:10.37,2013-03-17 22:11:00,
2013-03-17 23:16:00,41.8,39.6,29.23,SE,132,6.5,8.1,92,0.01,BKN,,0.11,0.0,WeatherDisplay:10.37,2013-03-17 22:16:00,
2013-03-17 23:21:00,41.7,39.5,29.23,SE,146,6.7,10.4,92,0.01,BKN,,0.11,0.0,WeatherDisplay:10.37,2013-03-17 22:21:00,
2013-03-17 23:26:00,41.7,39.5,29.23,SE,144,7.8,11.5,92,0.00,BKN,,0.11,0.0,WeatherDisplay:10.37,2013-03-17 22:26:00,
2013-03-17 23:31:00,41.7,39.5,29.23,SE,142,9.1,13.8,92,0.00,BKN,,0.11,0.0,WeatherDisplay:10.37,2013-03-17 22:31:00,
2013-03-17 23:36:00,41.7,39.5,29.23,SSE,155,10.4,12.7,92,0.00,BKN,,0.11,0.0,WeatherDisplay:10.37,2013-03-17 22:36:00,
2013-03-17 23:41:00,41.7,39.5,29.22,SE,146,7.2,19.6,92,0.00,BKN,,0.11,0.0,WeatherDisplay:10.37,2013-03-17 22:41:00,
2013-03-17 23:46:00,41.7,39.5,29.23,SSE,159,7.2,9.2,92,0.00,-RA,,0.11,0.0,WeatherDisplay:10.37,2013-03-17 22:46:00,
2013-03-17 23:51:00,41.6,39.4,29.23,SSE,157,8.0,11.5,92,0.01,-RA,,0.12,0.0,WeatherDisplay:10.37,2013-03-17 22:51:00,
2013-03-17 23:56:00,41.6,39.4,29.22,SSE,152,8.2,11.5,92,0.01,-RA,,0.12,0.0,WeatherDisplay:10.37,2013-03-17 22:56:00,